Brooksville, Florida
Current Conditions -  °F | °C
As of 2:53 AM on Sunday 26 Oct 2014 (Local Time) from KBKV Reporting Station
Haze Haze  
Wind Chill: 49°   Ceiling: Unl
Heat Index: 49°   Visibility: 6mi
Dew Point: 48°   Wind: 0mph
Humidity: 97%   Direction: NA
Pressure: 29.99"   Gusts: NA
Location:  28.55°N, 82.39°W
Report Text: KBKV 260653Z 00000KT 6SM BR CLR 09/09 A2999 RMK AO2 SLP155 T00940089
Loading
Personal Weather Stations






























Interactive Weather Map
Tropical Storm Tracking
New forecast layout! Learn more

10-Day Weather Forecast

Advertisements
Track Severe Weather on mobile